Time;durP1;ratioP1;P1;durP2;ratioP2;P2;SDS_P1;SDS_P2;PMS_P1;PMS_P2;Temp;Humidity;BMP_temperature;BMP_pressure;BME280_temperature;BME280_humidity;BME280_pressure;Samples;Min_cycle;Max_cycle;Signal;HPM_P1;HPM_P2
2023/09/09 00:02:16;;;;;;;8.45;4.18;;;23.20;99.90;;;;;;5248712;28;20035;-77
2023/09/09 00:04:47;;;;;;;12.40;5.13;;;23.10;99.90;;;;;;5236389;28;20025;-77
2023/09/09 00:07:18;;;;;;;3.78;3.47;;;23.10;99.90;;;;;;5247028;28;20036;-76
2023/09/09 00:09:49;;;;;;;6.72;4.15;;;23.10;99.90;;;;;;5248440;28;20059;-77
2023/09/09 00:12:20;;;;;;;6.10;4.18;;;23.00;99.90;;;;;;5248497;28;20021;-76
2023/09/09 00:14:50;;;;;;;10.45;4.05;;;23.00;99.90;;;;;;5236847;28;20507;-77
2023/09/09 00:17:21;;;;;;;5.43;3.63;;;23.00;99.90;;;;;;5246903;28;20484;-76
2023/09/09 00:19:52;;;;;;;5.75;3.85;;;23.10;99.90;;;;;;5248428;28;20020;-76
2023/09/09 00:22:23;;;;;;;6.00;4.20;;;23.10;99.90;;;;;;5247292;28;20115;-76
2023/09/09 00:24:54;;;;;;;5.10;3.85;;;22.90;99.90;;;;;;5248423;28;20393;-78
2023/09/09 00:27:25;;;;;;;7.18;4.30;;;23.00;99.90;;;;;;5248436;28;20035;-77
2023/09/09 00:29:55;;;;;;;12.55;4.20;;;22.90;99.90;;;;;;5247002;28;20045;-76
2023/09/09 00:32:26;;;;;;;5.88;4.13;;;22.70;99.90;;;;;;5247891;28;20043;-77
2023/09/09 00:34:57;;;;;;;4.80;4.28;;;22.60;99.90;;;;;;5246817;28;20024;-76
2023/09/09 00:37:28;;;;;;;5.35;4.65;;;22.50;99.90;;;;;;5248567;28;20024;-77
2023/09/09 00:39:59;;;;;;;6.63;4.65;;;22.70;99.90;;;;;;5248280;28;20460;-76
2023/09/09 00:42:30;;;;;;;6.72;4.55;;;22.70;99.90;;;;;;5248095;28;20020;-78
2023/09/09 00:45:01;;;;;;;7.15;4.40;;;22.70;99.90;;;;;;5246775;28;20078;-78
2023/09/09 00:47:32;;;;;;;8.27;4.93;;;22.70;99.90;;;;;;5247986;28;20034;-76
2023/09/09 00:50:05;;;;;;;9.70;4.40;;;22.80;99.90;;;;;;5246943;28;20033;-78
2023/09/09 00:52:38;;;;;;;8.98;4.55;;;22.60;99.90;;;;;;5263810;28;20059;-77
2023/09/09 00:55:11;;;;;;;7.50;5.15;;;22.30;99.90;;;;;;5248456;28;20021;-77
2023/09/09 00:57:42;;;;;;;5.65;4.20;;;22.50;99.90;;;;;;5247029;28;20483;-76
2023/09/09 01:00:13;;;;;;;6.82;3.92;;;22.60;99.90;;;;;;5247812;28;20044;-78
2023/09/09 01:02:44;;;;;;;9.38;5.03;;;22.60;99.90;;;;;;5248225;28;20035;-77
2023/09/09 01:05:15;;;;;;;9.15;4.57;;;22.60;99.90;;;;;;5248257;28;20024;-76
2023/09/09 01:07:48;;;;;;;5.43;4.57;;;22.50;99.90;;;;;;5247996;28;20065;-77
2023/09/09 01:10:19;;;;;;;4.97;4.38;;;22.40;99.90;;;;;;5247895;28;20873;-77
2023/09/09 01:12:50;;;;;;;8.27;4.65;;;22.40;99.90;;;;;;5246527;28;20028;-78
2023/09/09 01:15:21;;;;;;;6.43;4.40;;;22.40;99.90;;;;;;5248018;28;20035;-80
2023/09/09 01:17:53;;;;;;;7.28;4.43;;;22.60;99.90;;;;;;5247756;28;20400;-78
2023/09/09 01:20:25;;;;;;;5.50;4.47;;;22.50;99.90;;;;;;5247966;28;20024;-77
2023/09/09 01:22:56;;;;;;;7.75;4.85;;;22.50;99.90;;;;;;5247964;28;20380;-77
2023/09/09 01:25:27;;;;;;;10.30;5.22;;;22.40;99.90;;;;;;5246819;28;20073;-78
2023/09/09 01:27:59;;;;;;;10.80;4.68;;;22.50;99.90;;;;;;5246364;28;20040;-78
2023/09/09 01:30:31;;;;;;;8.95;4.70;;;22.50;99.90;;;;;;5247744;28;20028;-77
2023/09/09 01:33:02;;;;;;;7.78;5.45;;;22.70;99.90;;;;;;5247561;28;20025;-78
2023/09/09 01:35:33;;;;;;;6.07;4.50;;;22.60;99.90;;;;;;5247920;28;20549;-77
2023/09/09 01:38:03;;;;;;;5.45;4.40;;;22.70;99.90;;;;;;5247381;28;20062;-77
2023/09/09 01:40:34;;;;;;;9.65;4.80;;;22.70;99.90;;;;;;5246291;28;20036;-78
2023/09/09 01:43:05;;;;;;;5.13;4.38;;;22.50;99.90;;;;;;5247758;28;20028;-77
2023/09/09 01:45:36;;;;;;;7.28;4.20;;;22.50;99.90;;;;;;5247486;28;20029;-79
2023/09/09 01:48:07;;;;;;;6.80;4.60;;;22.60;99.90;;;;;;5246407;28;20118;-76
2023/09/09 01:50:38;;;;;;;6.10;4.20;;;22.60;99.90;;;;;;5247897;28;20028;-76
2023/09/09 01:53:09;;;;;;;5.80;4.47;;;22.70;99.90;;;;;;5247530;28;20073;-77
2023/09/09 01:55:39;;;;;;;6.20;4.30;;;22.60;99.90;;;;;;5248796;28;20556;-78
2023/09/09 01:58:10;;;;;;;5.80;4.50;;;22.60;99.90;;;;;;5250175;28;20101;-76
2023/09/09 02:00:42;;;;;;;6.32;4.75;;;22.70;99.90;;;;;;5249920;28;20045;-77
2023/09/09 02:03:12;;;;;;;5.10;4.40;;;22.80;99.90;;;;;;5251015;28;20039;-78
2023/09/09 02:05:45;;;;;;;6.10;4.18;;;22.70;99.90;;;;;;5251272;28;20100;-76
2023/09/09 02:08:19;;;;;;;5.60;4.53;;;22.70;99.90;;;;;;5250469;28;20033;-79
2023/09/09 02:10:53;;;;;;;6.75;4.45;;;22.90;99.90;;;;;;5250011;28;20035;-80
2023/09/09 02:13:25;;;;;;;8.73;4.68;;;22.80;99.90;;;;;;5249347;28;20029;-80
2023/09/09 02:16:06;;;;;;;9.25;4.60;;;22.90;99.90;;;;;;5248402;28;20433;-77
2023/09/09 02:18:39;;;;;;;7.47;4.00;;;22.80;99.90;;;;;;5248363;28;20103;-79
2023/09/09 02:21:10;;;;;;;6.75;4.10;;;22.80;99.90;;;;;;5251201;28;20024;-77
2023/09/09 02:23:42;;;;;;;7.88;4.35;;;22.90;99.90;;;;;;5248908;28;20035;-76
2023/09/09 02:26:13;;;;;;;6.70;4.30;;;22.90;99.90;;;;;;5250790;28;20024;-76
2023/09/09 02:28:49;;;;;;;8.45;4.70;;;22.70;99.90;;;;;;5249247;28;20047;-76
2023/09/09 02:31:20;;;;;;;7.32;5.13;;;22.60;99.90;;;;;;5250826;28;20032;-76
2023/09/09 02:33:51;;;;;;;9.07;4.80;;;22.70;99.90;;;;;;5250790;28;20104;-75
2023/09/09 02:36:21;;;;;;;9.85;5.13;;;22.60;99.90;;;;;;5246121;28;20036;-76
2023/09/09 02:38:52;;;;;;;7.78;5.75;;;22.70;99.90;;;;;;5247263;28;20091;-76
2023/09/09 02:41:23;;;;;;;7.05;5.20;;;22.70;99.90;;;;;;5250556;28;20086;-77
2023/09/09 02:43:54;;;;;;;9.88;5.20;;;22.70;99.90;;;;;;5249189;28;20028;-75
2023/09/09 02:46:25;;;;;;;8.07;5.25;;;22.70;99.90;;;;;;5248972;28;20074;-76
2023/09/09 02:48:56;;;;;;;8.30;5.65;;;22.80;99.90;;;;;;5250338;28;20040;-76
2023/09/09 02:51:27;;;;;;;7.18;4.55;;;22.70;99.90;;;;;;5249911;28;20138;-76
2023/09/09 02:53:58;;;;;;;8.10;5.07;;;22.60;99.90;;;;;;5250214;28;20029;-76
2023/09/09 02:56:28;;;;;;;8.65;4.88;;;22.70;99.90;;;;;;5249704;28;20028;-76
2023/09/09 02:58:59;;;;;;;9.65;5.88;;;22.70;99.90;;;;;;5249716;28;20447;-76
2023/09/09 03:01:31;;;;;;;6.50;5.00;;;22.70;99.90;;;;;;5250366;28;20036;-77
2023/09/09 03:04:01;;;;;;;9.85;5.10;;;22.60;99.90;;;;;;5250028;28;20039;-76
2023/09/09 03:06:32;;;;;;;10.35;5.32;;;22.60;99.90;;;;;;5249998;28;20475;-77
2023/09/09 03:09:04;;;;;;;8.02;5.40;;;22.60;99.90;;;;;;5248747;28;20037;-76
2023/09/09 03:11:35;;;;;;;7.20;4.68;;;22.60;99.90;;;;;;5249907;28;20029;-77
2023/09/09 03:14:06;;;;;;;8.05;4.75;;;22.70;99.90;;;;;;5248509;28;20039;-76
2023/09/09 03:16:37;;;;;;;5.78;4.72;;;22.70;99.90;;;;;;5248247;28;20021;-77
2023/09/09 03:19:08;;;;;;;7.10;5.10;;;22.70;99.90;;;;;;5249808;28;20029;-76
2023/09/09 03:21:39;;;;;;;8.07;4.80;;;22.70;99.90;;;;;;5248955;28;20021;-77
2023/09/09 03:24:10;;;;;;;7.65;4.72;;;22.70;99.90;;;;;;5249430;28;20530;-76
2023/09/09 03:26:41;;;;;;;11.13;6.07;;;22.60;99.90;;;;;;5248155;28;20025;-77
2023/09/09 03:29:12;;;;;;;7.68;5.70;;;22.60;99.90;;;;;;5249116;28;20048;-77
2023/09/09 03:31:42;;;;;;;10.05;5.60;;;22.70;99.90;;;;;;5249276;28;20016;-77
2023/09/09 03:34:13;;;;;;;6.40;5.20;;;22.50;99.90;;;;;;5248231;28;20028;-77
2023/09/09 03:36:44;;;;;;;6.03;4.90;;;22.50;99.90;;;;;;5249280;28;20376;-77
2023/09/09 03:39:15;;;;;;;7.78;5.30;;;22.50;99.90;;;;;;5249282;28;20025;-76
2023/09/09 03:41:46;;;;;;;6.38;4.95;;;22.50;99.90;;;;;;5249075;28;20027;-77
2023/09/09 03:44:17;;;;;;;11.90;5.78;;;22.40;99.90;;;;;;5249276;28;20025;-77
2023/09/09 03:46:47;;;;;;;5.65;5.05;;;22.60;99.90;;;;;;5249136;28;20091;-77
2023/09/09 03:49:18;;;;;;;9.27;5.57;;;22.60;99.90;;;;;;5248907;28;20083;-76
2023/09/09 03:51:49;;;;;;;10.40;6.05;;;22.40;99.90;;;;;;5249054;28;20017;-77
2023/09/09 03:54:20;;;;;;;7.13;5.15;;;22.50;99.90;;;;;;5249105;28;20043;-77
2023/09/09 03:56:51;;;;;;;5.25;4.75;;;22.60;99.90;;;;;;5247826;28;20048;-77
2023/09/09 03:59:21;;;;;;;8.15;6.18;;;22.60;99.90;;;;;;5248642;28;20717;-76
2023/09/09 04:01:52;;;;;;;5.85;4.47;;;22.50;99.90;;;;;;5248884;28;20031;-76
2023/09/09 04:04:23;;;;;;;5.68;4.95;;;22.60;99.90;;;;;;5248757;28;20028;-76
2023/09/09 04:06:54;;;;;;;9.30;5.30;;;22.70;99.90;;;;;;5248950;28;20375;-76
2023/09/09 04:09:26;;;;;;;6.35;5.30;;;22.60;99.90;;;;;;5248598;28;20044;-76
2023/09/09 04:11:57;;;;;;;8.80;5.00;;;22.70;99.90;;;;;;5247311;28;20024;-76
2023/09/09 04:14:28;;;;;;;6.07;4.57;;;22.60;99.90;;;;;;5248844;28;20096;-76
2023/09/09 04:16:59;;;;;;;7.90;5.15;;;22.60;99.90;;;;;;5247330;28;20107;-76
2023/09/09 04:19:30;;;;;;;7.18;4.35;;;22.60;99.90;;;;;;5248140;28;20056;-77
2023/09/09 04:22:01;;;;;;;6.60;5.13;;;22.60;99.90;;;;;;5247031;28;20090;-75
2023/09/09 04:24:32;;;;;;;7.05;4.93;;;22.70;99.90;;;;;;5248144;28;20036;-76
2023/09/09 04:27:03;;;;;;;7.82;5.18;;;22.70;99.90;;;;;;5247193;28;20024;-76
2023/09/09 04:29:33;;;;;;;6.43;5.35;;;22.70;99.90;;;;;;5248330;28;20464;-76
2023/09/09 04:32:05;;;;;;;5.60;4.80;;;22.70;99.90;;;;;;5246853;28;20082;-76
2023/09/09 04:34:35;;;;;;;6.32;5.07;;;22.80;99.90;;;;;;5247121;28;20032;-76
2023/09/09 04:37:06;;;;;;;10.98;5.00;;;22.90;99.90;;;;;;5244569;28;20371;-76
2023/09/09 04:39:37;;;;;;;6.25;5.15;;;23.00;99.90;;;;;;5248402;28;20430;-76
2023/09/09 04:42:08;;;;;;;7.50;5.20;;;23.10;99.90;;;;;;5248062;28;20103;-76
2023/09/09 04:44:39;;;;;;;6.60;5.50;;;23.00;99.90;;;;;;5248541;28;20025;-76
2023/09/09 04:47:10;;;;;;;7.85;4.30;;;23.20;99.90;;;;;;5248234;28;20435;-75
2023/09/09 04:49:41;;;;;;;6.05;4.22;;;23.20;99.90;;;;;;5248233;28;20070;-76
2023/09/09 04:52:11;;;;;;;7.25;5.05;;;23.30;99.90;;;;;;5247086;28;20031;-78
2023/09/09 04:54:43;;;;;;;5.50;4.50;;;23.30;99.90;;;;;;5248183;28;20032;-77
2023/09/09 04:57:14;;;;;;;4.57;4.18;;;23.40;99.90;;;;;;5248325;28;20427;-76
2023/09/09 04:59:45;;;;;;;5.18;3.88;;;23.40;99.90;;;;;;5247804;28;20060;-76
2023/09/09 05:02:15;;;;;;;5.05;4.53;;;23.50;99.90;;;;;;5240958;28;20075;-77
2023/09/09 05:04:46;;;;;;;6.53;4.75;;;23.60;99.90;;;;;;5227634;28;20399;-76
2023/09/09 05:07:17;;;;;;;6.55;5.45;;;23.60;99.90;;;;;;5246444;28;20037;-76
2023/09/09 05:09:48;;;;;;;6.68;5.35;;;23.60;99.90;;;;;;5246940;28;20035;-77
2023/09/09 05:12:19;;;;;;;11.45;5.78;;;23.70;99.90;;;;;;5247797;28;20468;-76
2023/09/09 05:14:50;;;;;;;8.95;6.00;;;23.80;99.90;;;;;;5246679;28;20048;-77
2023/09/09 05:17:21;;;;;;;9.30;4.97;;;23.60;99.90;;;;;;5247808;28;20024;-76
2023/09/09 05:19:52;;;;;;;7.63;5.53;;;23.80;99.90;;;;;;5247066;28;20032;-76
2023/09/09 05:22:23;;;;;;;7.47;6.22;;;23.60;99.90;;;;;;5246554;28;20060;-77
2023/09/09 05:24:54;;;;;;;7.15;5.72;;;23.90;99.90;;;;;;5248092;28;20056;-76
2023/09/09 05:27:25;;;;;;;8.02;5.55;;;23.80;99.90;;;;;;5246340;28;20028;-76
2023/09/09 05:29:56;;;;;;;7.47;5.40;;;23.90;99.90;;;;;;5247136;28;20105;-76
2023/09/09 05:32:26;;;;;;;7.05;5.72;;;23.90;99.90;;;;;;5251902;28;20074;-76
2023/09/09 05:34:57;;;;;;;4.90;4.50;;;24.00;99.90;;;;;;5246556;28;20024;-76
2023/09/09 05:37:30;;;;;;;8.00;5.20;;;24.00;99.90;;;;;;5251804;28;20028;-76
2023/09/09 05:40:02;;;;;;;5.80;5.22;;;24.10;99.90;;;;;;5251412;28;20112;-77
2023/09/09 05:42:33;;;;;;;6.28;5.07;;;24.30;99.90;;;;;;5251486;28;20016;-77
2023/09/09 05:45:05;;;;;;;7.72;5.68;;;24.30;99.90;;;;;;5251175;28;20021;-77
2023/09/09 05:47:36;;;;;;;10.30;5.65;;;24.30;99.90;;;;;;5251219;28;20029;-77
2023/09/09 05:50:08;;;;;;;8.32;6.28;;;24.20;99.90;;;;;;5251394;28;20085;-76
2023/09/09 05:52:39;;;;;;;7.47;5.72;;;24.30;99.90;;;;;;5252197;28;20028;-77
2023/09/09 05:55:09;;;;;;;9.02;6.28;;;24.10;99.90;;;;;;5249795;28;20388;-76
2023/09/09 05:57:40;;;;;;;5.70;5.07;;;24.10;99.90;;;;;;5241156;28;20029;-77
2023/09/09 06:00:11;;;;;;;6.07;5.45;;;24.20;99.90;;;;;;5230491;28;20057;-78
2023/09/09 06:02:43;;;;;;;6.45;4.65;;;24.20;99.90;;;;;;5229488;28;20017;-77
2023/09/09 06:05:15;;;;;;;5.90;5.40;;;24.10;99.90;;;;;;5230510;28;20036;-77
2023/09/09 06:07:46;;;;;;;6.65;5.63;;;23.90;99.90;;;;;;5230443;28;20070;-76
2023/09/09 06:10:19;;;;;;;6.70;5.40;;;24.00;99.90;;;;;;5230812;28;20396;-77
2023/09/09 06:12:51;;;;;;;7.07;5.20;;;24.00;99.90;;;;;;5237450;28;20024;-77
2023/09/09 06:15:22;;;;;;;9.40;5.68;;;24.20;99.90;;;;;;5251034;28;20166;-76
2023/09/09 06:17:57;;;;;;;11.25;5.72;;;24.20;99.90;;;;;;5251131;28;20099;-77
2023/09/09 06:20:28;;;;;;;6.28;5.68;;;23.90;99.90;;;;;;5249605;28;20025;-77
2023/09/09 06:22:58;;;;;;;9.60;5.57;;;23.90;99.90;;;;;;5251034;28;20028;-77
2023/09/09 06:25:31;;;;;;;6.50;5.00;;;23.80;99.90;;;;;;5249183;28;20384;-78
2023/09/09 06:28:02;;;;;;;9.43;5.90;;;23.90;99.90;;;;;;5249591;28;20384;-78
2023/09/09 06:30:34;;;;;;;7.10;5.65;;;23.90;99.90;;;;;;5250941;28;20468;-78
2023/09/09 06:33:05;;;;;;;7.32;5.50;;;24.00;99.90;;;;;;5249450;28;20534;-81
2023/09/09 06:35:37;;;;;;;6.97;5.50;;;23.90;99.90;;;;;;5250267;28;20028;-78
2023/09/09 06:38:07;;;;;;;7.72;5.05;;;23.90;99.90;;;;;;5249371;28;20051;-79
2023/09/09 06:40:38;;;;;;;7.28;5.40;;;23.80;99.90;;;;;;5249430;28;20024;-79
2023/09/09 06:43:09;;;;;;;6.57;5.20;;;23.80;99.90;;;;;;5250088;28;20027;-77
2023/09/09 06:45:40;;;;;;;5.25;4.75;;;24.00;99.90;;;;;;5248879;28;20511;-78
2023/09/09 06:48:16;;;;;;;6.53;4.68;;;23.90;99.90;;;;;;5249029;28;20040;-78
2023/09/09 06:50:47;;;;;;;4.80;4.35;;;23.90;99.90;;;;;;5249025;28;20023;-79
2023/09/09 06:53:18;;;;;;;5.90;4.32;;;24.10;99.90;;;;;;5249969;28;20391;-78
2023/09/09 06:55:49;;;;;;;5.80;4.55;;;24.10;99.90;;;;;;5250199;28;20407;-77
2023/09/09 06:58:20;;;;;;;5.10;4.65;;;24.20;99.90;;;;;;5248745;28;20044;-79
2023/09/09 07:00:52;;;;;;;4.97;4.57;;;24.60;99.90;;;;;;5249971;28;20105;-82
2023/09/09 07:03:23;;;;;;;5.30;4.80;;;24.40;99.90;;;;;;5248713;28;20082;-80
2023/09/09 07:05:54;;;;;;;8.02;5.00;;;24.40;99.90;;;;;;5249740;28;20024;-78
2023/09/09 07:08:24;;;;;;;4.78;4.38;;;24.70;99.90;;;;;;5248530;28;20044;-79
2023/09/09 07:10:56;;;;;;;5.03;4.53;;;24.90;99.90;;;;;;5248101;28;20036;-80
2023/09/09 07:13:27;;;;;;;9.02;4.70;;;24.80;99.90;;;;;;5249845;28;20025;-77
2023/09/09 07:15:58;;;;;;;5.90;4.70;;;24.90;99.90;;;;;;5249259;28;20035;-77
2023/09/09 07:18:29;;;;;;;7.65;4.55;;;24.80;99.90;;;;;;5249783;28;20024;-77
2023/09/09 07:21:00;;;;;;;6.28;3.90;;;25.00;99.90;;;;;;5248079;28;20027;-77
2023/09/09 07:23:31;;;;;;;5.75;4.28;;;24.80;99.90;;;;;;5248196;28;20024;-77
2023/09/09 07:26:02;;;;;;;5.93;4.53;;;25.00;99.90;;;;;;5248320;28;20859;-78
2023/09/09 07:28:33;;;;;;;8.50;4.22;;;24.90;99.90;;;;;;5248385;28;20115;-79
2023/09/09 07:31:04;;;;;;;9.18;4.78;;;25.10;99.90;;;;;;5249641;28;20423;-79
2023/09/09 07:33:36;;;;;;;8.23;3.92;;;25.00;99.90;;;;;;5249670;28;20029;-78
2023/09/09 07:36:07;;;;;;;4.63;4.20;;;25.00;99.90;;;;;;5249540;28;20063;-78
2023/09/09 07:38:37;;;;;;;6.60;4.43;;;24.90;99.90;;;;;;5248475;28;20475;-82
2023/09/09 07:41:08;;;;;;;5.18;3.95;;;25.00;99.90;;;;;;5249424;28;20021;-78
2023/09/09 07:43:39;;;;;;;5.22;4.72;;;24.90;99.90;;;;;;5248112;28;20029;-80
2023/09/09 07:46:11;;;;;;;10.90;3.97;;;24.80;99.90;;;;;;5239102;28;20487;-81
2023/09/09 07:48:44;;;;;;;5.00;4.50;;;25.00;99.90;;;;;;5177335;28;20503;-78
2023/09/09 07:51:14;;;;;;;7.32;4.80;;;25.20;99.90;;;;;;5248127;28;20025;-80
2023/09/09 07:53:46;;;;;;;5.60;3.90;;;25.50;99.90;;;;;;5247040;28;20024;-76
2023/09/09 07:56:17;;;;;;;9.70;4.50;;;25.40;99.90;;;;;;5249219;28;20028;-77
2023/09/09 07:58:47;;;;;;;4.22;3.83;;;25.60;99.90;;;;;;5247483;28;20033;-76
2023/09/09 08:01:19;;;;;;;10.18;3.95;;;25.50;99.90;;;;;;5248859;28;20032;-76
2023/09/09 08:03:50;;;;;;;9.10;4.15;;;25.80;99.90;;;;;;5248023;28;20067;-76
2023/09/09 08:06:21;;;;;;;5.15;4.38;;;25.90;99.90;;;;;;5248729;28;20462;-76
2023/09/09 08:08:52;;;;;;;5.88;4.82;;;26.00;99.90;;;;;;5247319;28;21001;-81
2023/09/09 08:11:23;;;;;;;5.82;4.35;;;26.00;99.90;;;;;;5248699;28;20129;-77
2023/09/09 08:13:54;;;;;;;7.38;4.25;;;26.00;99.90;;;;;;5248059;28;20116;-82
2023/09/09 08:16:25;;;;;;;4.88;4.30;;;26.00;99.90;;;;;;5248194;28;20017;-77
2023/09/09 08:18:56;;;;;;;5.20;4.65;;;26.00;99.90;;;;;;5248318;28;20039;-79
2023/09/09 08:21:27;;;;;;;4.00;3.60;;;25.80;99.90;;;;;;5247772;28;20063;-81
2023/09/09 08:23:59;;;;;;;7.38;4.20;;;26.00;99.90;;;;;;5248029;28;20076;-80
2023/09/09 08:26:30;;;;;;;6.97;3.97;;;26.10;99.90;;;;;;5246394;28;20066;-76
2023/09/09 08:29:01;;;;;;;6.80;4.85;;;26.00;99.90;;;;;;5247799;28;20496;-79
2023/09/09 08:31:31;;;;;;;7.35;4.82;;;26.20;99.90;;;;;;5248270;28;20024;-78
2023/09/09 08:34:02;;;;;;;5.78;4.43;;;26.10;99.90;;;;;;5247942;28;20028;-76
2023/09/09 08:36:33;;;;;;;4.95;4.55;;;26.30;99.90;;;;;;5248907;28;20024;-76
2023/09/09 08:39:04;;;;;;;7.05;4.60;;;26.10;99.90;;;;;;5247991;28;20108;-79
2023/09/09 08:42:06;;;;;;;12.20;5.07;;;26.00;99.90;;;;;;5248285;28;20499;-77
2023/09/09 08:45:11;;;;;;;6.05;5.10;;;26.30;99.90;;;;;;5229327;28;20583;-80
2023/09/09 08:47:45;;;;;;;7.80;5.78;;;26.50;99.90;;;;;;5247835;28;20029;-77
2023/09/09 08:50:17;;;;;;;6.45;5.78;;;26.80;99.90;;;;;;5245605;28;20123;-76
2023/09/09 08:52:50;;;;;;;6.40;5.90;;;26.70;99.90;;;;;;5246822;28;20031;-79
2023/09/09 08:55:21;;;;;;;7.13;6.38;;;26.90;99.90;;;;;;5247379;28;20392;-78
2023/09/09 08:57:52;;;;;;;7.88;4.88;;;27.00;99.90;;;;;;5239881;28;20400;-75
2023/09/09 09:00:31;;;;;;;6.45;4.90;;;26.80;99.90;;;;;;5239097;28;20052;-76
2023/09/09 09:03:03;;;;;;;9.30;6.00;;;26.40;99.90;;;;;;5242076;28;20380;-75
2023/09/09 09:05:36;;;;;;;8.27;5.90;;;26.40;99.90;;;;;;5248908;28;20095;-77
2023/09/09 09:08:09;;;;;;;6.13;5.63;;;26.30;99.90;;;;;;5250486;28;20020;-75
2023/09/09 09:10:40;;;;;;;8.65;5.43;;;26.20;99.90;;;;;;5250217;28;20452;-75
2023/09/09 09:13:11;;;;;;;7.45;5.15;;;26.10;99.90;;;;;;5249481;28;20684;-75
2023/09/09 09:15:42;;;;;;;13.13;4.82;;;26.10;99.90;;;;;;5250011;28;20070;-77
2023/09/09 09:18:13;;;;;;;7.65;4.60;;;26.30;99.90;;;;;;5252101;28;20078;-75
2023/09/09 09:20:44;;;;;;;12.38;5.30;;;26.90;99.90;;;;;;5250064;28;20460;-76
2023/09/09 09:23:15;;;;;;;7.57;4.78;;;27.10;99.90;;;;;;5252296;28;20236;-75
2023/09/09 09:25:47;;;;;;;5.38;3.95;;;26.80;99.90;;;;;;5250081;28;20518;-75
2023/09/09 09:28:18;;;;;;;7.53;4.97;;;26.80;99.90;;;;;;5231106;28;20036;-75
2023/09/09 09:30:49;;;;;;;7.53;5.05;;;26.40;99.90;;;;;;5230933;28;20032;-74
2023/09/09 09:33:25;;;;;;;9.60;5.03;;;26.70;99.90;;;;;;5229803;28;20067;-74
2023/09/09 09:35:59;;;;;;;10.10;4.65;;;26.70;99.90;;;;;;5229747;28;20029;-75
2023/09/09 09:38:30;;;;;;;9.88;4.50;;;26.80;99.90;;;;;;5231022;28;20029;-75
2023/09/09 09:41:01;;;;;;;8.68;4.28;;;26.60;99.90;;;;;;5238550;28;20028;-75
2023/09/09 09:43:32;;;;;;;6.60;4.80;;;26.30;99.90;;;;;;5250006;28;20032;-75
2023/09/09 09:46:17;;;;;;;6.05;4.13;;;26.70;99.90;;;;;;5250312;28;20029;-74
2023/09/09 09:48:48;;;;;;;5.03;4.55;;;26.80;99.90;;;;;;5251387;28;20086;-74
2023/09/09 09:51:19;;;;;;;10.20;4.90;;;26.60;99.90;;;;;;5251509;28;20456;-74
2023/09/09 09:53:53;;;;;;;7.35;4.45;;;26.40;99.90;;;;;;5249735;28;20082;-74
2023/09/09 09:56:24;;;;;;;12.25;4.38;;;26.60;99.90;;;;;;5251074;28;20476;-74
2023/09/09 09:58:56;;;;;;;7.93;4.72;;;26.80;99.90;;;;;;5250836;28;20029;-74
2023/09/09 10:01:29;;;;;;;6.20;4.07;;;26.90;99.90;;;;;;5251319;28;20027;-74
2023/09/09 10:04:06;;;;;;;6.60;5.07;;;27.00;99.90;;;;;;5249766;28;20029;-77
2023/09/09 10:06:38;;;;;;;5.65;4.72;;;26.80;99.90;;;;;;5250994;28;20024;-74
2023/09/09 10:09:13;;;;;;;9.73;4.80;;;26.90;99.90;;;;;;5249472;28;20036;-74
2023/09/09 10:11:59;;;;;;;6.40;4.55;;;26.90;99.90;;;;;;5249352;28;20438;-76
2023/09/09 10:14:31;;;;;;;9.57;4.90;;;26.40;99.90;;;;;;5249574;28;20115;-78
2023/09/09 10:17:07;;;;;;;6.88;3.92;;;27.00;99.90;;;;;;5249756;28;20047;-77
2023/09/09 10:19:39;;;;;;;7.25;4.40;;;26.80;99.90;;;;;;5250791;28;20028;-74
2023/09/09 10:22:10;;;;;;;8.93;4.70;;;26.70;99.90;;;;;;5250857;28;20021;-77
2023/09/09 10:24:44;;;;;;;7.75;4.68;;;26.90;99.90;;;;;;5250293;28;20434;-75
2023/09/09 10:27:17;;;;;;;6.68;4.65;;;27.00;99.90;;;;;;5250373;28;20082;-78
2023/09/09 10:29:52;;;;;;;5.28;4.38;;;26.70;99.90;;;;;;5250403;28;20052;-77
2023/09/09 10:32:25;;;;;;;5.90;3.72;;;26.50;99.90;;;;;;5250551;28;20048;-77
2023/09/09 10:34:57;;;;;;;7.22;3.95;;;26.50;99.90;;;;;;5250659;28;20380;-75
2023/09/09 10:37:31;;;;;;;7.13;4.65;;;27.10;99.90;;;;;;5250146;28;20077;-74
2023/09/09 10:40:05;;;;;;;5.45;4.90;;;27.40;99.90;;;;;;5249365;28;20033;-74
2023/09/09 10:42:39;;;;;;;8.50;4.45;;;27.30;99.90;;;;;;5248848;28;20119;-75
2023/09/09 10:45:28;;;;;;;10.05;4.63;;;27.10;99.90;;;;;;5250302;28;20476;-74
2023/09/09 10:48:04;;;;;;;12.25;5.55;;;27.50;99.90;;;;;;5248883;28;20035;-75
2023/09/09 10:50:52;;;;;;;12.88;7.97;;;27.70;99.90;;;;;;5250076;28;20071;-77
2023/09/09 10:53:28;;;;;;;13.67;8.37;;;27.40;99.90;;;;;;5250207;28;20025;-74
2023/09/09 10:56:21;;;;;;;10.57;6.30;;;26.80;99.90;;;;;;5249756;28;20411;-75
2023/09/09 10:58:52;;;;;;;7.70;5.75;;;27.50;99.90;;;;;;5249381;28;20106;-75
2023/09/09 11:01:25;;;;;;;8.63;5.80;;;27.20;99.90;;;;;;5248581;28;20016;-74
2023/09/09 11:03:57;;;;;;;6.38;5.85;;;27.20;99.90;;;;;;5248538;28;20056;-75
2023/09/09 11:06:29;;;;;;;10.00;6.65;;;26.90;99.90;;;;;;5249857;28;20082;-74
2023/09/09 11:09:02;;;;;;;6.80;5.75;;;26.90;99.90;;;;;;5248192;28;20029;-75
2023/09/09 11:11:37;;;;;;;9.98;5.47;;;27.30;99.90;;;;;;5249622;28;20020;-74
2023/09/09 11:14:10;;;;;;;6.55;5.95;;;27.00;99.90;;;;;;5249767;28;20031;-74
2023/09/09 11:16:41;;;;;;;13.10;6.28;;;27.00;99.90;;;;;;5249394;28;20020;-74
2023/09/09 11:19:16;;;;;;;5.85;5.25;;;26.80;99.90;;;;;;5249924;28;20033;-76
2023/09/09 11:21:48;;;;;;;7.55;6.15;;;27.20;99.90;;;;;;5249687;28;20021;-76
2023/09/09 11:24:20;;;;;;;7.55;6.85;;;27.60;99.90;;;;;;5249231;28;20036;-75
2023/09/09 11:26:51;;;;;;;7.60;6.85;;;27.90;99.90;;;;;;5249416;28;20032;-74
2023/09/09 11:29:22;;;;;;;7.18;6.45;;;27.70;99.90;;;;;;5247844;28;20045;-74
2023/09/09 11:31:52;;;;;;;6.75;6.25;;;27.90;99.90;;;;;;5248239;28;20025;-75
2023/09/09 11:34:33;;;;;;;7.20;5.47;;;27.70;99.90;;;;;;5249227;28;20017;-75
2023/09/09 11:37:05;;;;;;;8.38;5.10;;;28.10;99.90;;;;;;5249128;28;20031;-75
2023/09/09 11:39:40;;;;;;;6.45;5.88;;;27.90;99.90;;;;;;5247779;28;20119;-75
2023/09/09 11:42:11;;;;;;;6.60;5.88;;;27.80;99.90;;;;;;5242087;28;20029;-74
2023/09/09 11:44:42;;;;;;;9.60;5.50;;;28.00;99.90;;;;;;5238322;28;20028;-74
2023/09/09 11:47:17;;;;;;;7.47;5.70;;;27.80;99.90;;;;;;5248929;28;20032;-74
2023/09/09 11:49:48;;;;;;;6.07;5.47;;;27.90;99.90;;;;;;5248766;28;20059;-74
2023/09/09 11:52:23;;;;;;;5.88;5.38;;;27.80;99.90;;;;;;5248611;28;20025;-74
2023/09/09 11:54:54;;;;;;;6.57;6.00;;;27.50;99.90;;;;;;5247465;28;20549;-74
2023/09/09 11:57:25;;;;;;;7.38;5.70;;;28.00;99.90;;;;;;5247051;28;20037;-74
2023/09/09 11:59:57;;;;;;;5.97;5.25;;;28.10;99.90;;;;;;5246970;28;20190;-75
2023/09/09 12:02:28;;;;;;;7.28;6.22;;;27.70;99.90;;;;;;5248808;28;20165;-75
2023/09/09 12:05:01;;;;;;;8.50;6.78;;;27.50;99.90;;;;;;5248486;28;20104;-74
2023/09/09 12:07:34;;;;;;;13.55;6.97;;;27.80;99.90;;;;;;5248447;28;20035;-75
2023/09/09 12:10:12;;;;;;;8.65;6.47;;;28.00;99.90;;;;;;5248083;28;20032;-75
2023/09/09 12:12:47;;;;;;;8.70;6.82;;;27.80;99.90;;;;;;5248305;28;20017;-74
2023/09/09 12:15:19;;;;;;;10.68;7.60;;;27.70;99.90;;;;;;5247194;28;20193;-75
2023/09/09 12:17:50;;;;;;;9.30;6.35;;;27.10;99.90;;;;;;5248271;28;20028;-74
2023/09/09 12:20:22;;;;;;;10.57;5.93;;;26.90;99.90;;;;;;5246684;28;20472;-74
2023/09/09 12:22:52;;;;;;;7.22;5.30;;;27.00;99.90;;;;;;5247009;28;20779;-74
2023/09/09 12:25:37;;;;;;;11.43;4.63;;;26.90;99.90;;;;;;5247951;28;20036;-75
2023/09/09 12:28:17;;;;;;;10.30;5.13;;;26.90;99.90;;;;;;5247934;28;20098;-74
2023/09/09 12:30:51;;;;;;;6.80;4.72;;;27.20;99.90;;;;;;5248171;28;20119;-74
2023/09/09 12:33:21;;;;;;;7.47;4.82;;;27.00;99.90;;;;;;5248053;28;20016;-75
2023/09/09 12:35:52;;;;;;;9.82;5.07;;;26.70;99.90;;;;;;5246644;28;20028;-74
2023/09/09 12:38:23;;;;;;;6.35;4.25;;;27.50;99.90;;;;;;5246588;28;20028;-75
2023/09/09 12:41:06;;;;;;;9.70;4.95;;;27.50;99.90;;;;;;5247648;28;20029;-75
2023/09/09 12:43:36;;;;;;;7.07;5.43;;;27.70;99.90;;;;;;5246355;28;20024;-75
2023/09/09 12:46:12;;;;;;;7.97;5.15;;;27.70;99.90;;;;;;5247551;28;20031;-74
2023/09/09 12:49:09;;;;;;;8.60;5.03;;;27.80;99.90;;;;;;5247810;28;20063;-75
2023/09/09 12:51:40;;;;;;;9.23;5.20;;;27.50;99.90;;;;;;5243584;28;20032;-73
2023/09/09 12:54:11;;;;;;;6.20;4.93;;;27.60;99.90;;;;;;5247293;28;20032;-74
2023/09/09 12:56:42;;;;;;;7.65;5.70;;;27.60;99.90;;;;;;5246444;28;20392;-77
2023/09/09 12:59:13;;;;;;;9.93;5.32;;;27.80;99.90;;;;;;5247256;28;20056;-74
2023/09/09 13:01:45;;;;;;;7.25;5.82;;;27.80;99.90;;;;;;5247273;28;20079;-75
2023/09/09 13:04:16;;;;;;;10.23;5.40;;;27.50;99.90;;;;;;5246380;28;20032;-75
2023/09/09 13:06:47;;;;;;;9.18;5.28;;;27.30;99.90;;;;;;5246354;28;20552;-75
2023/09/09 13:09:18;;;;;;;5.03;4.45;;;27.70;99.90;;;;;;5247536;28;20086;-74
2023/09/09 13:11:49;;;;;;;8.68;5.68;;;27.40;99.90;;;;;;5246176;28;20467;-74